sensor_id;sensor_type;location;lat;lon;timestamp;P1;durP1;ratioP1;P2;durP2;ratioP2
11151;SDS011;5630;49.342;10.802;2022-10-15T00:01:36;6.63;;;5.10;;
11151;SDS011;5630;49.342;10.802;2022-10-15T00:04:02;8.13;;;4.93;;
11151;SDS011;5630;49.342;10.802;2022-10-15T00:06:28;5.43;;;4.73;;
11151;SDS011;5630;49.342;10.802;2022-10-15T00:08:53;7.70;;;4.57;;
11151;SDS011;5630;49.342;10.802;2022-10-15T00:11:20;7.77;;;4.87;;
11151;SDS011;5630;49.342;10.802;2022-10-15T00:13:48;7.33;;;4.53;;
11151;SDS011;5630;49.342;10.802;2022-10-15T00:16:15;7.03;;;4.47;;
11151;SDS011;5630;49.342;10.802;2022-10-15T00:18:42;5.43;;;4.23;;
11151;SDS011;5630;49.342;10.802;2022-10-15T00:21:09;12.13;;;4.23;;
11151;SDS011;5630;49.342;10.802;2022-10-15T00:23:36;6.50;;;4.13;;
11151;SDS011;5630;49.342;10.802;2022-10-15T00:28:29;4.57;;;4.00;;
11151;SDS011;5630;49.342;10.802;2022-10-15T00:30:59;7.77;;;4.00;;
11151;SDS011;5630;49.342;10.802;2022-10-15T00:33:25;7.20;;;4.03;;
11151;SDS011;5630;49.342;10.802;2022-10-15T00:35:58;7.90;;;4.23;;
11151;SDS011;5630;49.342;10.802;2022-10-15T00:38:28;10.33;;;4.20;;
11151;SDS011;5630;49.342;10.802;2022-10-15T00:40:54;8.00;;;3.83;;
11151;SDS011;5630;49.342;10.802;2022-10-15T00:48:55;5.23;;;3.40;;
11151;SDS011;5630;49.342;10.802;2022-10-15T00:51:36;6.70;;;3.47;;
11151;SDS011;5630;49.342;10.802;2022-10-15T00:54:07;6.60;;;3.23;;
11151;SDS011;5630;49.342;10.802;2022-10-15T00:56:33;3.20;;;2.90;;
11151;SDS011;5630;49.342;10.802;2022-10-15T00:59:00;4.93;;;2.70;;
11151;SDS011;5630;49.342;10.802;2022-10-15T01:01:26;5.80;;;3.00;;
11151;SDS011;5630;49.342;10.802;2022-10-15T01:03:52;5.30;;;2.80;;
11151;SDS011;5630;49.342;10.802;2022-10-15T01:06:19;5.37;;;2.40;;
11151;SDS011;5630;49.342;10.802;2022-10-15T01:08:45;4.93;;;2.70;;
11151;SDS011;5630;49.342;10.802;2022-10-15T01:16:48;7.90;;;2.20;;
11151;SDS011;5630;49.342;10.802;2022-10-15T01:22:27;5.47;;;2.37;;
11151;SDS011;5630;49.342;10.802;2022-10-15T01:25:30;5.07;;;1.90;;
11151;SDS011;5630;49.342;10.802;2022-10-15T01:42:39;3.77;;;1.57;;
11151;SDS011;5630;49.342;10.802;2022-10-15T01:45:04;3.97;;;1.80;;
11151;SDS011;5630;49.342;10.802;2022-10-15T01:47:34;2.07;;;1.47;;
11151;SDS011;5630;49.342;10.802;2022-10-15T01:50:03;4.47;;;1.40;;
11151;SDS011;5630;49.342;10.802;2022-10-15T01:52:32;2.50;;;1.57;;
11151;SDS011;5630;49.342;10.802;2022-10-15T01:55:01;3.53;;;1.50;;
11151;SDS011;5630;49.342;10.802;2022-10-15T01:57:29;1.70;;;1.40;;
11151;SDS011;5630;49.342;10.802;2022-10-15T01:59:57;4.80;;;1.43;;
11151;SDS011;5630;49.342;10.802;2022-10-15T02:02:23;3.90;;;1.17;;
11151;SDS011;5630;49.342;10.802;2022-10-15T02:04:49;1.50;;;1.30;;
11151;SDS011;5630;49.342;10.802;2022-10-15T02:07:16;1.30;;;1.20;;
11151;SDS011;5630;49.342;10.802;2022-10-15T02:10:11;3.80;;;1.40;;
11151;SDS011;5630;49.342;10.802;2022-10-15T02:15:36;3.23;;;1.50;;
11151;SDS011;5630;49.342;10.802;2022-10-15T02:18:54;2.93;;;1.30;;
11151;SDS011;5630;49.342;10.802;2022-10-15T02:21:30;5.73;;;1.23;;
11151;SDS011;5630;49.342;10.802;2022-10-15T02:24:14;3.33;;;1.30;;
11151;SDS011;5630;49.342;10.802;2022-10-15T02:26:41;1.73;;;1.30;;
11151;SDS011;5630;49.342;10.802;2022-10-15T02:29:09;4.00;;;1.40;;
11151;SDS011;5630;49.342;10.802;2022-10-15T02:31:38;4.47;;;1.00;;
11151;SDS011;5630;49.342;10.802;2022-10-15T02:34:08;5.10;;;1.10;;
11151;SDS011;5630;49.342;10.802;2022-10-15T02:36:38;1.87;;;1.10;;
11151;SDS011;5630;49.342;10.802;2022-10-15T02:39:04;2.13;;;1.10;;
11151;SDS011;5630;49.342;10.802;2022-10-15T02:41:34;1.23;;;0.90;;
11151;SDS011;5630;49.342;10.802;2022-10-15T02:44:01;3.50;;;1.27;;
11151;SDS011;5630;49.342;10.802;2022-10-15T02:46:27;2.13;;;1.00;;
11151;SDS011;5630;49.342;10.802;2022-10-15T02:48:53;5.03;;;1.00;;
11151;SDS011;5630;49.342;10.802;2022-10-15T02:51:19;1.97;;;1.10;;
11151;SDS011;5630;49.342;10.802;2022-10-15T02:53:44;2.90;;;1.10;;
11151;SDS011;5630;49.342;10.802;2022-10-15T02:56:10;1.67;;;1.10;;
11151;SDS011;5630;49.342;10.802;2022-10-15T02:58:35;3.13;;;1.03;;
11151;SDS011;5630;49.342;10.802;2022-10-15T03:01:01;4.70;;;1.20;;
11151;SDS011;5630;49.342;10.802;2022-10-15T03:03:26;2.97;;;1.23;;
11151;SDS011;5630;49.342;10.802;2022-10-15T03:05:52;4.47;;;1.23;;
11151;SDS011;5630;49.342;10.802;2022-10-15T03:08:17;2.67;;;1.20;;
11151;SDS011;5630;49.342;10.802;2022-10-15T03:10:43;1.73;;;1.30;;
11151;SDS011;5630;49.342;10.802;2022-10-15T03:13:10;1.50;;;1.10;;
11151;SDS011;5630;49.342;10.802;2022-10-15T03:15:35;3.67;;;1.20;;
11151;SDS011;5630;49.342;10.802;2022-10-15T03:18:01;3.27;;;1.50;;
11151;SDS011;5630;49.342;10.802;2022-10-15T03:20:27;2.90;;;1.30;;
11151;SDS011;5630;49.342;10.802;2022-10-15T03:22:53;1.70;;;1.30;;
11151;SDS011;5630;49.342;10.802;2022-10-15T03:25:18;3.70;;;1.40;;
11151;SDS011;5630;49.342;10.802;2022-10-15T03:27:44;2.00;;;1.53;;
11151;SDS011;5630;49.342;10.802;2022-10-15T03:30:09;1.83;;;1.30;;
11151;SDS011;5630;49.342;10.802;2022-10-15T03:32:35;5.17;;;1.30;;
11151;SDS011;5630;49.342;10.802;2022-10-15T03:35:01;4.43;;;1.30;;
11151;SDS011;5630;49.342;10.802;2022-10-15T03:37:27;1.40;;;1.30;;
11151;SDS011;5630;49.342;10.802;2022-10-15T03:39:52;5.00;;;1.30;;
11151;SDS011;5630;49.342;10.802;2022-10-15T03:42:18;2.00;;;1.17;;
11151;SDS011;5630;49.342;10.802;2022-10-15T03:44:44;2.50;;;1.37;;
11151;SDS011;5630;49.342;10.802;2022-10-15T03:47:09;1.50;;;1.40;;
11151;SDS011;5630;49.342;10.802;2022-10-15T03:49:35;2.20;;;1.40;;
11151;SDS011;5630;49.342;10.802;2022-10-15T03:52:00;1.23;;;1.13;;
11151;SDS011;5630;49.342;10.802;2022-10-15T03:54:26;1.63;;;1.10;;
11151;SDS011;5630;49.342;10.802;2022-10-15T03:56:51;3.97;;;1.27;;
11151;SDS011;5630;49.342;10.802;2022-10-15T03:59:17;2.50;;;1.20;;
11151;SDS011;5630;49.342;10.802;2022-10-15T04:01:43;4.77;;;1.37;;
11151;SDS011;5630;49.342;10.802;2022-10-15T04:04:09;1.30;;;1.17;;
11151;SDS011;5630;49.342;10.802;2022-10-15T04:06:36;1.33;;;1.20;;
11151;SDS011;5630;49.342;10.802;2022-10-15T04:09:02;4.20;;;1.20;;
11151;SDS011;5630;49.342;10.802;2022-10-15T04:11:28;1.13;;;1.07;;
11151;SDS011;5630;49.342;10.802;2022-10-15T04:13:53;2.30;;;1.00;;
11151;SDS011;5630;49.342;10.802;2022-10-15T04:16:19;2.90;;;1.10;;
11151;SDS011;5630;49.342;10.802;2022-10-15T04:18:44;3.90;;;1.20;;
11151;SDS011;5630;49.342;10.802;2022-10-15T04:21:10;3.47;;;1.27;;
11151;SDS011;5630;49.342;10.802;2022-10-15T04:23:35;4.87;;;1.37;;
11151;SDS011;5630;49.342;10.802;2022-10-15T04:26:01;2.30;;;1.20;;
11151;SDS011;5630;49.342;10.802;2022-10-15T04:28:27;2.30;;;1.17;;
11151;SDS011;5630;49.342;10.802;2022-10-15T04:30:56;1.60;;;1.10;;
11151;SDS011;5630;49.342;10.802;2022-10-15T04:33:23;1.43;;;0.97;;
11151;SDS011;5630;49.342;10.802;2022-10-15T04:36:02;2.50;;;1.57;;
11151;SDS011;5630;49.342;10.802;2022-10-15T04:38:30;4.83;;;1.10;;
11151;SDS011;5630;49.342;10.802;2022-10-15T04:41:29;1.33;;;1.10;;
11151;SDS011;5630;49.342;10.802;2022-10-15T04:43:47;2.50;;;1.00;;
11151;SDS011;5630;49.342;10.802;2022-10-15T04:46:13;1.53;;;1.27;;
11151;SDS011;5630;49.342;10.802;2022-10-15T04:48:38;2.20;;;1.30;;
11151;SDS011;5630;49.342;10.802;2022-10-15T04:53:35;2.60;;;1.27;;
11151;SDS011;5630;49.342;10.802;2022-10-15T04:56:02;1.33;;;1.10;;
11151;SDS011;5630;49.342;10.802;2022-10-15T04:58:30;2.10;;;1.30;;
11151;SDS011;5630;49.342;10.802;2022-10-15T05:00:58;3.93;;;1.10;;
11151;SDS011;5630;49.342;10.802;2022-10-15T05:03:25;1.80;;;1.20;;
11151;SDS011;5630;49.342;10.802;2022-10-15T05:05:50;2.93;;;1.40;;
11151;SDS011;5630;49.342;10.802;2022-10-15T05:08:16;2.43;;;1.10;;
11151;SDS011;5630;49.342;10.802;2022-10-15T05:10:41;5.30;;;1.30;;
11151;SDS011;5630;49.342;10.802;2022-10-15T05:13:07;1.67;;;1.23;;
11151;SDS011;5630;49.342;10.802;2022-10-15T05:15:32;2.33;;;1.00;;
11151;SDS011;5630;49.342;10.802;2022-10-15T05:17:58;1.83;;;1.20;;
11151;SDS011;5630;49.342;10.802;2022-10-15T05:20:23;2.43;;;1.30;;
11151;SDS011;5630;49.342;10.802;2022-10-15T05:22:49;4.20;;;2.67;;
11151;SDS011;5630;49.342;10.802;2022-10-15T05:25:15;4.70;;;2.70;;
11151;SDS011;5630;49.342;10.802;2022-10-15T05:27:40;3.10;;;1.70;;
11151;SDS011;5630;49.342;10.802;2022-10-15T05:30:06;6.00;;;1.40;;
11151;SDS011;5630;49.342;10.802;2022-10-15T05:32:32;3.00;;;1.00;;
11151;SDS011;5630;49.342;10.802;2022-10-15T05:34:57;2.00;;;0.80;;
11151;SDS011;5630;49.342;10.802;2022-10-15T05:37:23;3.17;;;1.10;;
11151;SDS011;5630;49.342;10.802;2022-10-15T05:39:48;3.83;;;1.10;;
11151;SDS011;5630;49.342;10.802;2022-10-15T05:42:14;2.50;;;1.10;;
11151;SDS011;5630;49.342;10.802;2022-10-15T05:44:40;1.83;;;1.13;;
11151;SDS011;5630;49.342;10.802;2022-10-15T05:47:05;1.30;;;1.13;;
11151;SDS011;5630;49.342;10.802;2022-10-15T05:49:35;3.97;;;1.47;;
11151;SDS011;5630;49.342;10.802;2022-10-15T05:52:01;2.30;;;1.30;;
11151;SDS011;5630;49.342;10.802;2022-10-15T05:54:26;1.80;;;1.20;;
11151;SDS011;5630;49.342;10.802;2022-10-15T05:56:52;3.03;;;1.20;;
11151;SDS011;5630;49.342;10.802;2022-10-15T05:59:17;1.53;;;1.10;;
11151;SDS011;5630;49.342;10.802;2022-10-15T06:01:43;2.50;;;1.20;;
11151;SDS011;5630;49.342;10.802;2022-10-15T06:04:09;2.17;;;1.00;;
11151;SDS011;5630;49.342;10.802;2022-10-15T06:06:35;1.60;;;1.10;;
11151;SDS011;5630;49.342;10.802;2022-10-15T06:09:00;1.63;;;1.10;;
11151;SDS011;5630;49.342;10.802;2022-10-15T06:11:26;1.90;;;1.30;;
11151;SDS011;5630;49.342;10.802;2022-10-15T06:13:52;1.20;;;1.10;;
11151;SDS011;5630;49.342;10.802;2022-10-15T06:16:18;0.90;;;0.90;;
11151;SDS011;5630;49.342;10.802;2022-10-15T06:18:43;1.87;;;0.93;;
11151;SDS011;5630;49.342;10.802;2022-10-15T06:21:09;1.63;;;1.07;;
11151;SDS011;5630;49.342;10.802;2022-10-15T06:23:36;1.53;;;1.00;;
11151;SDS011;5630;49.342;10.802;2022-10-15T06:26:05;3.80;;;1.33;;
11151;SDS011;5630;49.342;10.802;2022-10-15T06:28:32;1.93;;;1.20;;
11151;SDS011;5630;49.342;10.802;2022-10-15T06:30:59;1.17;;;1.00;;
11151;SDS011;5630;49.342;10.802;2022-10-15T06:33:25;5.83;;;1.13;;
11151;SDS011;5630;49.342;10.802;2022-10-15T06:35:51;2.87;;;1.00;;
11151;SDS011;5630;49.342;10.802;2022-10-15T06:38:17;2.90;;;1.30;;
11151;SDS011;5630;49.342;10.802;2022-10-15T06:40:43;2.70;;;1.50;;
11151;SDS011;5630;49.342;10.802;2022-10-15T06:43:09;3.10;;;1.40;;
11151;SDS011;5630;49.342;10.802;2022-10-15T06:45:36;2.93;;;1.60;;
11151;SDS011;5630;49.342;10.802;2022-10-15T06:48:03;1.77;;;1.57;;
11151;SDS011;5630;49.342;10.802;2022-10-15T06:50:33;3.53;;;1.47;;
11151;SDS011;5630;49.342;10.802;2022-10-15T06:53:00;3.70;;;1.40;;
11151;SDS011;5630;49.342;10.802;2022-10-15T06:55:26;2.90;;;2.23;;
11151;SDS011;5630;49.342;10.802;2022-10-15T06:57:55;2.57;;;1.93;;
11151;SDS011;5630;49.342;10.802;2022-10-15T07:00:21;1.90;;;1.70;;
11151;SDS011;5630;49.342;10.802;2022-10-15T07:02:47;1.47;;;1.37;;
11151;SDS011;5630;49.342;10.802;2022-10-15T07:05:13;1.80;;;1.37;;
11151;SDS011;5630;49.342;10.802;2022-10-15T07:07:39;1.77;;;1.30;;
11151;SDS011;5630;49.342;10.802;2022-10-15T07:10:05;2.87;;;1.10;;
11151;SDS011;5630;49.342;10.802;2022-10-15T07:12:31;2.50;;;1.17;;
11151;SDS011;5630;49.342;10.802;2022-10-15T07:14:56;1.60;;;1.00;;
11151;SDS011;5630;49.342;10.802;2022-10-15T07:17:22;1.40;;;1.20;;
11151;SDS011;5630;49.342;10.802;2022-10-15T07:19:47;2.50;;;1.20;;
11151;SDS011;5630;49.342;10.802;2022-10-15T07:22:13;1.37;;;1.03;;
11151;SDS011;5630;49.342;10.802;2022-10-15T07:24:39;1.30;;;1.10;;
11151;SDS011;5630;49.342;10.802;2022-10-15T07:27:04;1.30;;;1.10;;
11151;SDS011;5630;49.342;10.802;2022-10-15T07:29:30;1.10;;;1.00;;
11151;SDS011;5630;49.342;10.802;2022-10-15T07:31:56;3.70;;;1.27;;
11151;SDS011;5630;49.342;10.802;2022-10-15T07:34:22;1.90;;;1.20;;
11151;SDS011;5630;49.342;10.802;2022-10-15T07:36:47;1.83;;;1.07;;
11151;SDS011;5630;49.342;10.802;2022-10-15T07:39:13;2.60;;;1.20;;
11151;SDS011;5630;49.342;10.802;2022-10-15T07:41:41;4.53;;;1.50;;
11151;SDS011;5630;49.342;10.802;2022-10-15T07:44:07;1.30;;;0.80;;
11151;SDS011;5630;49.342;10.802;2022-10-15T07:46:32;1.40;;;0.77;;
11151;SDS011;5630;49.342;10.802;2022-10-15T07:48:58;1.27;;;0.60;;
11151;SDS011;5630;49.342;10.802;2022-10-15T07:51:24;0.93;;;0.70;;
11151;SDS011;5630;49.342;10.802;2022-10-15T07:53:49;0.97;;;0.80;;
11151;SDS011;5630;49.342;10.802;2022-10-15T07:56:15;5.43;;;1.20;;
11151;SDS011;5630;49.342;10.802;2022-10-15T07:58:41;1.13;;;0.80;;
11151;SDS011;5630;49.342;10.802;2022-10-15T08:01:08;0.97;;;0.90;;
11151;SDS011;5630;49.342;10.802;2022-10-15T08:03:35;2.63;;;1.13;;
11151;SDS011;5630;49.342;10.802;2022-10-15T08:06:02;1.63;;;1.17;;
11151;SDS011;5630;49.342;10.802;2022-10-15T08:08:29;1.13;;;1.03;;
11151;SDS011;5630;49.342;10.802;2022-10-15T08:10:56;2.77;;;1.40;;
11151;SDS011;5630;49.342;10.802;2022-10-15T08:13:22;1.73;;;1.63;;
11151;SDS011;5630;49.342;10.802;2022-10-15T08:15:47;1.60;;;1.20;;
11151;SDS011;5630;49.342;10.802;2022-10-15T08:18:13;2.60;;;1.33;;
11151;SDS011;5630;49.342;10.802;2022-10-15T08:20:39;1.57;;;1.40;;
11151;SDS011;5630;49.342;10.802;2022-10-15T08:23:05;3.57;;;1.40;;
11151;SDS011;5630;49.342;10.802;2022-10-15T08:25:37;3.67;;;1.70;;
11151;SDS011;5630;49.342;10.802;2022-10-15T08:28:03;2.13;;;1.43;;
11151;SDS011;5630;49.342;10.802;2022-10-15T08:30:28;3.53;;;1.40;;
11151;SDS011;5630;49.342;10.802;2022-10-15T08:32:54;2.63;;;1.00;;
11151;SDS011;5630;49.342;10.802;2022-10-15T08:35:19;5.80;;;1.40;;
11151;SDS011;5630;49.342;10.802;2022-10-15T08:37:46;3.80;;;1.60;;
11151;SDS011;5630;49.342;10.802;2022-10-15T08:40:11;2.47;;;1.07;;
11151;SDS011;5630;49.342;10.802;2022-10-15T08:42:39;2.10;;;1.90;;
11151;SDS011;5630;49.342;10.802;2022-10-15T08:45:13;1.50;;;1.40;;
11151;SDS011;5630;49.342;10.802;2022-10-15T08:50:31;2.17;;;1.67;;
11151;SDS011;5630;49.342;10.802;2022-10-15T08:53:13;2.07;;;1.80;;
11151;SDS011;5630;49.342;10.802;2022-10-15T08:55:43;1.60;;;1.50;;
11151;SDS011;5630;49.342;10.802;2022-10-15T08:58:31;1.50;;;1.40;;
11151;SDS011;5630;49.342;10.802;2022-10-15T09:01:30;1.70;;;1.60;;
11151;SDS011;5630;49.342;10.802;2022-10-15T09:04:07;2.33;;;1.20;;
11151;SDS011;5630;49.342;10.802;2022-10-15T09:07:06;2.27;;;1.40;;
11151;SDS011;5630;49.342;10.802;2022-10-15T09:09:47;5.03;;;1.20;;
11151;SDS011;5630;49.342;10.802;2022-10-15T09:12:44;5.23;;;1.37;;
11151;SDS011;5630;49.342;10.802;2022-10-15T09:15:21;1.37;;;1.20;;
11151;SDS011;5630;49.342;10.802;2022-10-15T09:17:49;2.97;;;2.30;;
11151;SDS011;5630;49.342;10.802;2022-10-15T09:20:17;3.93;;;3.40;;
11151;SDS011;5630;49.342;10.802;2022-10-15T09:22:49;4.40;;;1.50;;
11151;SDS011;5630;49.342;10.802;2022-10-15T09:25:17;4.50;;;1.50;;
11151;SDS011;5630;49.342;10.802;2022-10-15T09:27:48;1.60;;;1.30;;
11151;SDS011;5630;49.342;10.802;2022-10-15T09:30:31;3.20;;;1.30;;
11151;SDS011;5630;49.342;10.802;2022-10-15T09:33:06;1.40;;;1.30;;
11151;SDS011;5630;49.342;10.802;2022-10-15T09:38:30;1.40;;;1.30;;
11151;SDS011;5630;49.342;10.802;2022-10-15T09:41:29;2.40;;;1.70;;
11151;SDS011;5630;49.342;10.802;2022-10-15T09:44:04;1.63;;;1.47;;
11151;SDS011;5630;49.342;10.802;2022-10-15T09:46:44;1.93;;;1.70;;
11151;SDS011;5630;49.342;10.802;2022-10-15T09:49:12;3.00;;;1.50;;
11151;SDS011;5630;49.342;10.802;2022-10-15T09:51:56;1.70;;;1.40;;
11151;SDS011;5630;49.342;10.802;2022-10-15T09:54:29;3.27;;;1.40;;
11151;SDS011;5630;49.342;10.802;2022-10-15T09:57:01;1.93;;;1.40;;
11151;SDS011;5630;49.342;10.802;2022-10-15T09:59:26;2.13;;;1.30;;
11151;SDS011;5630;49.342;10.802;2022-10-15T10:01:59;3.20;;;1.50;;
11151;SDS011;5630;49.342;10.802;2022-10-15T10:04:42;3.20;;;1.10;;
11151;SDS011;5630;49.342;10.802;2022-10-15T10:07:22;3.97;;;1.40;;
11151;SDS011;5630;49.342;10.802;2022-10-15T10:10:04;1.73;;;1.10;;
11151;SDS011;5630;49.342;10.802;2022-10-15T10:12:46;1.47;;;0.90;;
11151;SDS011;5630;49.342;10.802;2022-10-15T10:17:57;2.20;;;1.10;;
11151;SDS011;5630;49.342;10.802;2022-10-15T10:20:23;2.67;;;1.20;;
11151;SDS011;5630;49.342;10.802;2022-10-15T10:22:51;3.00;;;1.00;;
11151;SDS011;5630;49.342;10.802;2022-10-15T10:25:34;1.10;;;1.00;;
11151;SDS011;5630;49.342;10.802;2022-10-15T10:30:40;1.37;;;1.20;;
11151;SDS011;5630;49.342;10.802;2022-10-15T10:33:23;1.10;;;1.00;;
11151;SDS011;5630;49.342;10.802;2022-10-15T10:35:52;4.37;;;1.20;;
11151;SDS011;5630;49.342;10.802;2022-10-15T10:40:48;1.67;;;1.10;;
11151;SDS011;5630;49.342;10.802;2022-10-15T10:45:51;2.07;;;0.90;;
11151;SDS011;5630;49.342;10.802;2022-10-15T10:48:26;1.93;;;0.90;;
11151;SDS011;5630;49.342;10.802;2022-10-15T10:51:13;2.27;;;1.33;;
11151;SDS011;5630;49.342;10.802;2022-10-15T10:53:46;1.40;;;1.00;;
11151;SDS011;5630;49.342;10.802;2022-10-15T10:56:21;1.10;;;1.00;;
11151;SDS011;5630;49.342;10.802;2022-10-15T10:58:53;1.13;;;0.90;;
11151;SDS011;5630;49.342;10.802;2022-10-15T11:01:22;1.17;;;0.90;;
11151;SDS011;5630;49.342;10.802;2022-10-15T11:03:47;1.73;;;0.83;;
11151;SDS011;5630;49.342;10.802;2022-10-15T11:08:48;2.60;;;0.90;;
11151;SDS011;5630;49.342;10.802;2022-10-15T11:14:10;2.90;;;1.00;;
11151;SDS011;5630;49.342;10.802;2022-10-15T11:16:44;2.67;;;1.10;;
11151;SDS011;5630;49.342;10.802;2022-10-15T11:24:39;2.23;;;1.57;;
11151;SDS011;5630;49.342;10.802;2022-10-15T11:29:53;1.87;;;1.30;;
11151;SDS011;5630;49.342;10.802;2022-10-15T11:32:53;3.70;;;1.10;;
11151;SDS011;5630;49.342;10.802;2022-10-15T11:35:50;1.87;;;1.00;;
11151;SDS011;5630;49.342;10.802;2022-10-15T11:38:26;1.10;;;1.00;;
11151;SDS011;5630;49.342;10.802;2022-10-15T11:41:24;2.30;;;1.30;;
11151;SDS011;5630;49.342;10.802;2022-10-15T11:55:42;2.63;;;1.50;;
11151;SDS011;5630;49.342;10.802;2022-10-15T11:58:58;0.80;;;0.80;;
11151;SDS011;5630;49.342;10.802;2022-10-15T12:01:23;0.83;;;0.77;;
11151;SDS011;5630;49.342;10.802;2022-10-15T12:04:05;2.87;;;1.00;;
11151;SDS011;5630;49.342;10.802;2022-10-15T12:06:38;0.70;;;0.70;;
11151;SDS011;5630;49.342;10.802;2022-10-15T12:09:08;1.37;;;0.90;;
11151;SDS011;5630;49.342;10.802;2022-10-15T12:11:44;1.60;;;0.60;;
11151;SDS011;5630;49.342;10.802;2022-10-15T12:17:17;1.30;;;0.90;;
11151;SDS011;5630;49.342;10.802;2022-10-15T12:20:06;0.90;;;0.83;;
11151;SDS011;5630;49.342;10.802;2022-10-15T12:27:59;1.50;;;1.30;;
11151;SDS011;5630;49.342;10.802;2022-10-15T12:30:40;1.93;;;1.10;;
11151;SDS011;5630;49.342;10.802;2022-10-15T12:41:38;2.67;;;0.77;;
11151;SDS011;5630;49.342;10.802;2022-10-15T12:44:10;0.67;;;0.67;;
11151;SDS011;5630;49.342;10.802;2022-10-15T12:46:44;3.00;;;0.77;;
11151;SDS011;5630;49.342;10.802;2022-10-15T12:51:51;0.80;;;0.70;;
11151;SDS011;5630;49.342;10.802;2022-10-15T12:57:02;5.13;;;0.90;;
11151;SDS011;5630;49.342;10.802;2022-10-15T12:59:52;8.67;;;4.93;;
11151;SDS011;5630;49.342;10.802;2022-10-15T13:05:32;4.60;;;2.07;;
11151;SDS011;5630;49.342;10.802;2022-10-15T13:08:00;3.03;;;0.80;;
11151;SDS011;5630;49.342;10.802;2022-10-15T13:10:29;1.27;;;0.90;;
11151;SDS011;5630;49.342;10.802;2022-10-15T13:13:09;4.83;;;1.00;;
11151;SDS011;5630;49.342;10.802;2022-10-15T13:15:38;3.30;;;0.83;;
11151;SDS011;5630;49.342;10.802;2022-10-15T13:18:07;0.60;;;0.60;;
11151;SDS011;5630;49.342;10.802;2022-10-15T13:20:37;0.70;;;0.70;;
11151;SDS011;5630;49.342;10.802;2022-10-15T13:23:13;1.70;;;0.70;;
11151;SDS011;5630;49.342;10.802;2022-10-15T13:25:40;3.13;;;0.70;;
11151;SDS011;5630;49.342;10.802;2022-10-15T13:28:25;1.10;;;0.70;;
11151;SDS011;5630;49.342;10.802;2022-10-15T13:30:57;1.23;;;0.80;;
11151;SDS011;5630;49.342;10.802;2022-10-15T13:33:23;4.00;;;1.50;;
11151;SDS011;5630;49.342;10.802;2022-10-15T13:35:49;1.03;;;0.93;;
11151;SDS011;5630;49.342;10.802;2022-10-15T13:38:22;2.67;;;0.77;;
11151;SDS011;5630;49.342;10.802;2022-10-15T13:40:51;0.80;;;0.80;;
11151;SDS011;5630;49.342;10.802;2022-10-15T13:43:19;0.50;;;0.50;;
11151;SDS011;5630;49.342;10.802;2022-10-15T13:45:52;0.70;;;0.57;;
11151;SDS011;5630;49.342;10.802;2022-10-15T13:48:22;1.00;;;0.70;;
11151;SDS011;5630;49.342;10.802;2022-10-15T13:50:53;3.33;;;1.13;;
11151;SDS011;5630;49.342;10.802;2022-10-15T13:55:49;3.10;;;0.90;;
11151;SDS011;5630;49.342;10.802;2022-10-15T13:58:18;3.63;;;1.53;;
11151;SDS011;5630;49.342;10.802;2022-10-15T14:03:33;3.50;;;2.20;;
11151;SDS011;5630;49.342;10.802;2022-10-15T14:06:19;3.37;;;2.00;;
11151;SDS011;5630;49.342;10.802;2022-10-15T14:08:47;8.37;;;2.90;;
11151;SDS011;5630;49.342;10.802;2022-10-15T14:11:18;4.90;;;1.80;;
11151;SDS011;5630;49.342;10.802;2022-10-15T14:19:06;3.23;;;0.93;;
11151;SDS011;5630;49.342;10.802;2022-10-15T14:21:35;3.00;;;1.00;;
11151;SDS011;5630;49.342;10.802;2022-10-15T14:24:05;2.13;;;0.93;;
11151;SDS011;5630;49.342;10.802;2022-10-15T14:26:32;0.87;;;0.77;;
11151;SDS011;5630;49.342;10.802;2022-10-15T14:28:59;1.53;;;1.13;;
11151;SDS011;5630;49.342;10.802;2022-10-15T14:31:29;3.43;;;1.20;;
11151;SDS011;5630;49.342;10.802;2022-10-15T14:34:03;2.23;;;1.07;;
11151;SDS011;5630;49.342;10.802;2022-10-15T14:36:30;2.23;;;0.97;;
11151;SDS011;5630;49.342;10.802;2022-10-15T14:42:25;1.83;;;1.00;;
11151;SDS011;5630;49.342;10.802;2022-10-15T14:44:54;1.83;;;1.10;;
11151;SDS011;5630;49.342;10.802;2022-10-15T14:47:21;2.07;;;1.10;;
11151;SDS011;5630;49.342;10.802;2022-10-15T14:49:49;3.30;;;1.20;;
11151;SDS011;5630;49.342;10.802;2022-10-15T14:52:19;1.53;;;1.00;;
11151;SDS011;5630;49.342;10.802;2022-10-15T14:54:50;6.00;;;1.53;;
11151;SDS011;5630;49.342;10.802;2022-10-15T14:57:27;3.20;;;1.10;;
11151;SDS011;5630;49.342;10.802;2022-10-15T14:59:56;4.60;;;1.17;;
11151;SDS011;5630;49.342;10.802;2022-10-15T15:02:23;5.33;;;1.10;;
11151;SDS011;5630;49.342;10.802;2022-10-15T15:05:06;4.67;;;1.40;;
11151;SDS011;5630;49.342;10.802;2022-10-15T15:07:32;1.83;;;1.20;;
11151;SDS011;5630;49.342;10.802;2022-10-15T15:09:57;7.30;;;1.50;;
11151;SDS011;5630;49.342;10.802;2022-10-15T15:12:23;4.40;;;1.47;;
11151;SDS011;5630;49.342;10.802;2022-10-15T15:14:50;6.67;;;1.47;;
11151;SDS011;5630;49.342;10.802;2022-10-15T15:17:22;5.67;;;1.43;;
11151;SDS011;5630;49.342;10.802;2022-10-15T15:19:50;5.87;;;1.20;;
11151;SDS011;5630;49.342;10.802;2022-10-15T15:22:24;3.17;;;1.47;;
11151;SDS011;5630;49.342;10.802;2022-10-15T15:24:55;2.57;;;1.10;;
11151;SDS011;5630;49.342;10.802;2022-10-15T15:27:30;3.73;;;1.30;;
11151;SDS011;5630;49.342;10.802;2022-10-15T15:30:01;6.63;;;1.70;;
11151;SDS011;5630;49.342;10.802;2022-10-15T15:32:31;5.13;;;3.70;;
11151;SDS011;5630;49.342;10.802;2022-10-15T15:34:56;3.13;;;1.93;;
11151;SDS011;5630;49.342;10.802;2022-10-15T15:37:23;7.47;;;1.47;;
11151;SDS011;5630;49.342;10.802;2022-10-15T15:39:50;2.47;;;1.83;;
11151;SDS011;5630;49.342;10.802;2022-10-15T15:42:22;4.27;;;1.53;;
11151;SDS011;5630;49.342;10.802;2022-10-15T15:44:48;2.47;;;1.63;;
11151;SDS011;5630;49.342;10.802;2022-10-15T15:47:14;11.60;;;8.07;;
11151;SDS011;5630;49.342;10.802;2022-10-15T15:49:40;10.23;;;9.17;;
11151;SDS011;5630;49.342;10.802;2022-10-15T15:52:06;4.87;;;3.03;;
11151;SDS011;5630;49.342;10.802;2022-10-15T15:54:37;3.87;;;2.00;;
11151;SDS011;5630;49.342;10.802;2022-10-15T15:57:04;1.50;;;1.40;;
11151;SDS011;5630;49.342;10.802;2022-10-15T15:59:29;3.20;;;2.10;;
11151;SDS011;5630;49.342;10.802;2022-10-15T16:01:55;1.30;;;1.10;;
11151;SDS011;5630;49.342;10.802;2022-10-15T16:04:21;6.73;;;3.27;;
11151;SDS011;5630;49.342;10.802;2022-10-15T16:06:46;3.23;;;1.47;;
11151;SDS011;5630;49.342;10.802;2022-10-15T16:09:18;2.73;;;1.57;;
11151;SDS011;5630;49.342;10.802;2022-10-15T16:11:46;4.47;;;2.00;;
11151;SDS011;5630;49.342;10.802;2022-10-15T16:14:12;4.27;;;2.73;;
11151;SDS011;5630;49.342;10.802;2022-10-15T16:16:38;4.30;;;3.90;;
11151;SDS011;5630;49.342;10.802;2022-10-15T16:19:03;1.67;;;1.17;;
11151;SDS011;5630;49.342;10.802;2022-10-15T16:21:30;2.03;;;1.43;;
11151;SDS011;5630;49.342;10.802;2022-10-15T16:23:56;6.17;;;5.53;;
11151;SDS011;5630;49.342;10.802;2022-10-15T16:26:22;6.93;;;4.73;;
11151;SDS011;5630;49.342;10.802;2022-10-15T16:28:47;4.60;;;2.20;;
11151;SDS011;5630;49.342;10.802;2022-10-15T16:31:17;5.57;;;2.97;;
11151;SDS011;5630;49.342;10.802;2022-10-15T16:33:47;8.20;;;6.57;;
11151;SDS011;5630;49.342;10.802;2022-10-15T16:36:14;4.07;;;2.63;;
11151;SDS011;5630;49.342;10.802;2022-10-15T16:38:40;8.13;;;3.03;;
11151;SDS011;5630;49.342;10.802;2022-10-15T16:41:07;2.00;;;1.70;;
11151;SDS011;5630;49.342;10.802;2022-10-15T16:43:34;6.30;;;1.60;;
11151;SDS011;5630;49.342;10.802;2022-10-15T16:46:00;2.53;;;1.80;;
11151;SDS011;5630;49.342;10.802;2022-10-15T16:48:30;2.97;;;1.30;;
11151;SDS011;5630;49.342;10.802;2022-10-15T16:51:04;2.77;;;1.73;;
11151;SDS011;5630;49.342;10.802;2022-10-15T16:53:32;2.17;;;1.90;;
11151;SDS011;5630;49.342;10.802;2022-10-15T16:56:00;3.93;;;1.40;;
11151;SDS011;5630;49.342;10.802;2022-10-15T16:58:27;3.10;;;1.33;;
11151;SDS011;5630;49.342;10.802;2022-10-15T17:00:56;4.10;;;1.30;;